KHTL/HTL METAR and TAF weather

Enter ICAO airport designator
Station Type Date Time Source
KHTL METAR 2019/06/27 09:53 UTC NOAA

KHTL 270953Z AUTO 00000KT 10SM CLR 13/11 A3016 RMK AO2 SLP210 T01280111


Station Type Date Time Source
KHTL Decoded METAR 2019/06/27 09:53 UTC NOAA

ROSCOMMON COUNTY AIRPORT, MI, United States (KHTL) 44-21N 084-40W 351M
Jun 27, 2019 - 05:53 AM EDT / 2019.06.27 0953 UTC
Wind: Calm:0
Visibility: 10 mile(s):0
Sky conditions: clear
Temperature: 55.0 F (12.8 C)
Dew Point: 52.0 F (11.1 C)
Relative Humidity: 89%
Pressure (altimeter): 30.16 in. Hg (1021 hPa)
ob: KHTL 270953Z AUTO 00000KT 10SM CLR 13/11 A3016 RMK AO2 SLP210 T01280111
cycle: 10

Station Type Date Time Source
KHTL TAF UTC NOAA

Error!

Example: see airport list